createdAt,value
2017-09-28T00:00:39.701Z,30.87
2017-09-28T00:03:14.301Z,29.20
2017-09-28T00:05:48.044Z,26.13
2017-09-28T00:08:21.825Z,29.30
2017-09-28T00:10:55.630Z,27.43
2017-09-28T00:13:30.057Z,28.83
2017-09-28T00:16:04.874Z,27.00
2017-09-28T00:18:39.356Z,29.27
2017-09-28T00:21:13.993Z,28.90
2017-09-28T00:23:47.867Z,24.50
2017-09-28T00:26:22.444Z,28.50
2017-09-28T00:28:56.155Z,27.73
2017-09-28T00:31:29.858Z,29.67
2017-09-28T00:34:04.379Z,26.37
2017-09-28T00:36:38.089Z,27.20
2017-09-28T00:39:12.719Z,27.80
2017-09-28T00:41:47.312Z,27.83
2017-09-28T00:44:21.056Z,28.20
2017-09-28T00:46:54.825Z,28.43
2017-09-28T00:49:28.737Z,27.63
2017-09-28T00:52:03.385Z,28.27
2017-09-28T00:54:37.129Z,30.77
2017-09-28T00:57:10.860Z,29.93
2017-09-28T00:59:44.699Z,32.50
2017-09-28T01:02:19.824Z,28.17
2017-09-28T01:04:53.542Z,30.80
2017-09-28T01:07:27.350Z,25.50
2017-09-28T01:10:01.985Z,28.47
2017-09-28T01:12:35.798Z,28.20
2017-09-28T01:15:09.592Z,30.10
2017-09-28T01:17:43.376Z,29.40
2017-09-28T01:20:17.332Z,28.53
2017-09-28T01:22:51.138Z,32.67
2017-09-28T01:25:26.611Z,30.17
2017-09-28T01:28:00.339Z,30.77
2017-09-28T01:30:34.173Z,28.47
2017-09-28T01:33:09.174Z,29.03
2017-09-28T01:35:43.633Z,29.23
2017-09-28T01:38:17.537Z,28.13
2017-09-28T01:40:51.282Z,27.27
2017-09-28T01:43:25.081Z,27.80
2017-09-28T01:45:58.797Z,29.63
2017-09-28T01:48:32.687Z,28.87
2017-09-28T01:51:06.453Z,25.87
2017-09-28T01:53:40.981Z,26.70
2017-09-28T01:56:14.661Z,26.77
2017-09-28T01:58:48.541Z,27.20
2017-09-28T02:01:22.306Z,28.17
2017-09-28T02:03:56.146Z,27.33
2017-09-28T02:06:29.885Z,29.00
2017-09-28T02:09:04.531Z,27.13
2017-09-28T02:11:38.878Z,26.17
2017-09-28T02:14:12.516Z,27.37
2017-09-28T02:16:46.524Z,27.03
2017-09-28T02:19:20.232Z,27.17
2017-09-28T02:21:54.775Z,25.70
2017-09-28T02:24:28.466Z,29.63
2017-09-28T02:27:02.319Z,27.43
2017-09-28T02:29:36.807Z,28.00
2017-09-28T02:32:10.492Z,27.03
2017-09-28T02:34:45.150Z,28.20
2017-09-28T02:37:18.804Z,26.73
2017-09-28T02:39:52.804Z,25.97
2017-09-28T02:42:26.535Z,25.40
2017-09-28T02:45:00.314Z,26.07
2017-09-28T02:47:34.880Z,27.40
2017-09-28T02:50:08.745Z,27.40
2017-09-28T02:52:42.439Z,26.50
2017-09-28T02:55:16.196Z,25.10
2017-09-28T02:57:49.915Z,28.30
2017-09-28T03:00:23.733Z,24.47
2017-09-28T03:02:58.322Z,25.40
2017-09-28T03:05:32.127Z,25.30
2017-09-28T03:08:06.516Z,25.40
2017-09-28T03:10:40.383Z,23.33
2017-09-28T03:13:14.110Z,24.43
2017-09-28T03:15:48.586Z,25.70
2017-09-28T03:18:22.548Z,25.83
2017-09-28T03:20:56.294Z,23.70
2017-09-28T03:23:30.005Z,24.57
2017-09-28T03:26:03.937Z,23.80
2017-09-28T03:28:37.740Z,24.30
2017-09-28T03:31:12.453Z,24.23
2017-09-28T03:33:46.272Z,24.43
2017-09-28T03:36:20.659Z,24.83
2017-09-28T03:38:54.460Z,24.03
2017-09-28T03:41:29.112Z,25.33
2017-09-28T03:44:03.513Z,24.57
2017-09-28T03:46:38.044Z,25.60
2017-09-28T03:49:12.675Z,27.10
2017-09-28T03:51:47.005Z,26.20
2017-09-28T03:54:20.808Z,24.10
2017-09-28T03:56:55.535Z,24.10
2017-09-28T03:59:29.357Z,24.27
2017-09-28T04:02:04.232Z,24.80
2017-09-28T04:04:37.875Z,23.43
2017-09-28T04:07:11.640Z,25.80
2017-09-28T04:09:45.413Z,25.03
2017-09-28T04:12:19.137Z,24.00
2017-09-28T04:14:53.614Z,23.00
2017-09-28T04:17:27.341Z,24.60
2017-09-28T04:20:01.136Z,24.43
2017-09-28T04:22:34.932Z,23.53
2017-09-28T04:25:08.749Z,24.87
2017-09-28T04:27:42.593Z,24.23
2017-09-28T04:30:16.352Z,24.40
2017-09-28T04:32:51.269Z,22.27
2017-09-28T04:35:25.781Z,26.10
2017-09-28T04:37:59.673Z,24.50
2017-09-28T04:40:33.589Z,23.40
2017-09-28T04:43:08.244Z,23.30
2017-09-28T04:45:42.017Z,23.53
2017-09-28T04:48:15.777Z,25.50
2017-09-28T04:50:49.526Z,22.67
2017-09-28T04:53:23.252Z,23.17
2017-09-28T04:55:56.935Z,24.40
2017-09-28T04:58:30.827Z,24.87
2017-09-28T05:01:04.585Z,23.70
2017-09-28T05:03:38.417Z,22.93
2017-09-28T05:06:12.260Z,22.53
2017-09-28T05:08:46.045Z,23.27
2017-09-28T05:11:19.824Z,23.87
2017-09-28T05:13:55.077Z,24.07
2017-09-28T05:16:29.012Z,23.00
2017-09-28T05:19:02.858Z,23.97
2017-09-28T05:21:36.691Z,24.97
2017-09-28T05:24:10.409Z,24.73
2017-09-28T05:26:44.204Z,24.30
2017-09-28T05:29:18.027Z,21.80
2017-09-28T05:31:52.508Z,22.43
2017-09-28T05:34:26.333Z,23.03
2017-09-28T05:37:00.732Z,24.37
2017-09-28T05:39:34.471Z,25.30
2017-09-28T05:42:08.292Z,23.83
2017-09-28T05:44:41.991Z,24.53
2017-09-28T05:47:15.780Z,29.53
2017-09-28T05:49:49.664Z,27.83
2017-09-28T05:52:23.388Z,28.20
2017-09-28T05:54:57.193Z,28.67
2017-09-28T05:57:31.705Z,28.33
2017-09-28T06:00:05.535Z,31.90
2017-09-28T06:02:39.346Z,32.47
2017-09-28T06:05:13.232Z,33.97
2017-09-28T06:07:47.137Z,31.73
2017-09-28T06:10:21.216Z,30.83
2017-09-28T06:12:55.752Z,32.80
2017-09-28T06:15:29.495Z,34.47
2017-09-28T06:18:04.104Z,36.63
2017-09-28T06:20:38.512Z,34.67
2017-09-28T06:23:12.915Z,37.00
2017-09-28T06:25:46.772Z,31.50
2017-09-28T06:28:20.464Z,32.70
2017-09-28T06:30:54.322Z,34.77
2017-09-28T06:33:28.957Z,35.57
2017-09-28T06:36:02.792Z,37.80
2017-09-28T06:38:36.581Z,37.53
2017-09-28T06:41:11.241Z,39.47
2017-09-28T06:43:45.930Z,38.27
2017-09-28T06:46:19.716Z,36.63
2017-09-28T06:48:54.623Z,35.90
2017-09-28T06:51:28.533Z,40.23
2017-09-28T06:54:03.087Z,39.80
2017-09-28T06:56:36.785Z,39.40
2017-09-28T06:59:10.514Z,42.10
2017-09-28T07:01:44.397Z,40.90
2017-09-28T07:04:18.152Z,38.73
2017-09-28T07:06:51.983Z,38.10
2017-09-28T07:09:25.748Z,39.53
2017-09-28T07:11:59.540Z,38.83
2017-09-28T07:14:33.450Z,37.97
2017-09-28T07:17:07.902Z,37.63
2017-09-28T07:19:41.701Z,38.90
2017-09-28T07:22:15.443Z,38.27
2017-09-28T07:24:49.921Z,37.23
2017-09-28T07:27:24.348Z,38.70
2017-09-28T07:29:59.003Z,39.47
2017-09-28T07:32:33.601Z,39.60
2017-09-28T07:35:08.091Z,37.40
2017-09-28T07:37:43.702Z,38.13
2017-09-28T07:40:17.405Z,38.47
2017-09-28T07:42:51.342Z,37.17
2017-09-28T07:45:25.881Z,38.07
2017-09-28T07:48:00.926Z,39.43
2017-09-28T07:50:34.742Z,39.83
2017-09-28T07:53:08.566Z,42.17
2017-09-28T07:55:43.079Z,43.23
2017-09-28T07:58:17.592Z,42.47
2017-09-28T08:00:51.363Z,44.37
2017-09-28T08:03:25.244Z,43.70
2017-09-28T08:05:59.803Z,44.77
2017-09-28T08:08:33.573Z,45.33
2017-09-28T08:11:07.305Z,45.97
2017-09-28T08:13:42.006Z,45.80
2017-09-28T08:16:15.803Z,45.33
2017-09-28T08:18:50.071Z,43.83
2017-09-28T08:21:24.745Z,43.23
2017-09-28T08:23:58.515Z,45.10
2017-09-28T08:26:32.329Z,43.60
2017-09-28T08:29:06.072Z,44.83
2017-09-28T08:31:40.756Z,44.80
2017-09-28T08:34:14.420Z,43.17
2017-09-28T08:36:48.961Z,44.23
2017-09-28T08:39:22.787Z,41.87
2017-09-28T08:41:56.718Z,40.70
2017-09-28T08:44:31.251Z,43.43
2017-09-28T08:47:05.844Z,44.33
2017-09-28T08:49:40.328Z,43.63
2017-09-28T08:52:14.481Z,41.50
2017-09-28T08:54:48.153Z,40.40
2017-09-28T08:57:21.913Z,40.90
2017-09-28T08:59:55.704Z,42.13
2017-09-28T09:02:30.228Z,44.70
2017-09-28T09:05:04.024Z,45.60
2017-09-28T09:07:37.977Z,40.67
2017-09-28T09:10:11.757Z,42.67
2017-09-28T09:12:45.610Z,43.50
2017-09-28T09:15:19.322Z,46.53
2017-09-28T09:17:55.517Z,46.30
2017-09-28T09:20:29.293Z,46.40
2017-09-28T09:23:03.045Z,44.37
2017-09-28T09:25:36.937Z,41.47
2017-09-28T09:28:10.776Z,42.07
2017-09-28T09:30:44.513Z,40.40
2017-09-28T09:33:18.481Z,43.47
2017-09-28T09:35:53.046Z,41.53
2017-09-28T09:38:26.817Z,39.87
2017-09-28T09:41:00.497Z,42.73
2017-09-28T09:43:34.334Z,42.53
2017-09-28T09:46:08.058Z,40.70
2017-09-28T09:48:41.958Z,40.03
2017-09-28T09:51:15.701Z,38.10
2017-09-28T09:53:49.928Z,40.07
2017-09-28T09:56:23.576Z,40.20
2017-09-28T09:58:58.041Z,40.13
2017-09-28T10:01:33.359Z,42.30
2017-09-28T10:04:07.205Z,38.60
2017-09-28T10:06:57.160Z,39.20
2017-09-28T10:09:32.482Z,39.70
2017-09-28T10:12:07.542Z,35.57
2017-09-28T10:14:43.991Z,40.63
2017-09-28T10:17:17.750Z,39.53
2017-09-28T10:19:51.529Z,42.50
2017-09-28T10:22:25.325Z,40.67
2017-09-28T10:24:59.035Z,42.67
2017-09-28T10:27:32.857Z,42.30
2017-09-28T10:30:07.355Z,41.40
2017-09-28T10:32:41.150Z,40.90
2017-09-28T10:35:14.966Z,41.17
2017-09-28T10:37:50.391Z,42.40
2017-09-28T10:40:24.121Z,42.13
2017-09-28T10:42:57.998Z,40.90
2017-09-28T10:45:31.838Z,39.50
2017-09-28T10:48:05.640Z,40.27
2017-09-28T10:50:39.488Z,38.37
2017-09-28T10:53:13.224Z,37.97
2017-09-28T10:55:47.201Z,40.13
2017-09-28T10:58:21.093Z,38.90
2017-09-28T11:00:54.858Z,39.00
2017-09-28T11:03:28.710Z,37.03
2017-09-28T11:06:02.521Z,38.60
2017-09-28T11:08:36.206Z,39.03
2017-09-28T11:11:10.135Z,37.87
2017-09-28T11:13:43.893Z,37.87
2017-09-28T11:16:18.505Z,38.90
2017-09-28T11:18:53.064Z,37.23
2017-09-28T11:21:26.760Z,36.93
2017-09-28T11:24:00.595Z,38.40
2017-09-28T11:26:35.197Z,39.07
2017-09-28T11:29:09.859Z,36.10
2017-09-28T11:31:44.453Z,37.70
2017-09-28T11:34:18.701Z,39.10
2017-09-28T11:36:52.601Z,35.07
2017-09-28T11:39:26.390Z,34.47
2017-09-28T11:42:00.112Z,36.60
2017-09-28T11:44:34.718Z,36.80
2017-09-28T11:47:08.561Z,37.20
2017-09-28T11:49:42.429Z,37.50
2017-09-28T11:52:16.260Z,36.13
2017-09-28T11:54:50.846Z,37.17
2017-09-28T11:57:24.585Z,36.57
2017-09-28T11:59:58.343Z,35.80
2017-09-28T12:02:32.141Z,38.20
2017-09-28T12:05:05.976Z,36.20
2017-09-28T12:07:39.772Z,39.47
2017-09-28T12:10:13.569Z,36.20
2017-09-28T12:12:48.105Z,36.33
2017-09-28T12:15:22.032Z,34.77
2017-09-28T12:17:55.815Z,37.03
2017-09-28T12:20:29.629Z,34.40
2017-09-28T12:23:03.464Z,34.40
2017-09-28T12:25:37.250Z,33.70
2017-09-28T12:28:11.079Z,35.50
2017-09-28T12:30:45.647Z,36.27
2017-09-28T12:33:19.541Z,34.90
2017-09-28T12:35:53.322Z,35.40
2017-09-28T12:38:27.015Z,35.03
2017-09-28T12:41:00.866Z,34.10
2017-09-28T12:43:34.736Z,33.80
2017-09-28T12:46:09.191Z,34.40
2017-09-28T12:48:43.751Z,31.40
2017-09-28T12:51:17.681Z,33.20
2017-09-28T12:53:52.172Z,33.50
2017-09-28T12:56:25.953Z,35.33
2017-09-28T12:58:59.829Z,34.03
2017-09-28T13:01:33.609Z,32.87
2017-09-28T13:04:07.430Z,35.10
2017-09-28T13:06:42.002Z,34.00
2017-09-28T13:09:15.869Z,34.00
2017-09-28T13:11:49.663Z,35.87
2017-09-28T13:14:23.435Z,32.60
2017-09-28T13:16:58.050Z,35.77
2017-09-28T13:19:31.784Z,33.90
2017-09-28T13:22:05.615Z,33.20
2017-09-28T13:24:39.434Z,34.07
2017-09-28T13:27:13.307Z,33.50
2017-09-28T13:29:47.168Z,33.40
2017-09-28T13:32:21.021Z,35.30
2017-09-28T13:34:55.522Z,34.70
2017-09-28T13:37:29.436Z,32.20
2017-09-28T13:40:04.066Z,32.20
2017-09-28T13:42:38.674Z,33.10
2017-09-28T13:45:12.546Z,31.93
2017-09-28T13:47:46.307Z,33.27
2017-09-28T13:50:20.093Z,32.20
2017-09-28T13:52:53.841Z,32.50
2017-09-28T13:55:27.557Z,32.73
2017-09-28T13:58:01.358Z,34.50
2017-09-28T14:00:35.944Z,32.83
2017-09-28T14:03:09.925Z,31.40
2017-09-28T14:05:43.760Z,33.93
2017-09-28T14:08:17.537Z,34.17
2017-09-28T14:10:51.467Z,32.97
2017-09-28T14:13:25.314Z,35.23
2017-09-28T14:15:59.126Z,32.23
2017-09-28T14:18:32.895Z,31.50
2017-09-28T14:21:07.629Z,32.10
2017-09-28T14:23:41.405Z,30.90
2017-09-28T14:26:15.275Z,33.73
2017-09-28T14:28:49.018Z,32.00
2017-09-28T14:31:22.786Z,33.40
2017-09-28T14:33:56.533Z,33.17
2017-09-28T14:36:30.297Z,32.00
2017-09-28T14:39:04.078Z,32.40
2017-09-28T14:41:37.799Z,33.10
2017-09-28T14:44:11.568Z,34.30
2017-09-28T14:46:46.110Z,33.10
2017-09-28T14:49:19.992Z,33.57
2017-09-28T14:51:53.862Z,33.40
2017-09-28T14:54:27.621Z,32.47
2017-09-28T14:57:02.628Z,33.77
2017-09-28T14:59:36.520Z,33.23
2017-09-28T15:02:10.331Z,32.83
2017-09-28T15:04:46.749Z,36.30
2017-09-28T15:07:20.408Z,36.57
2017-09-28T15:09:54.115Z,34.60
2017-09-28T15:12:28.022Z,33.90
2017-09-28T15:15:01.756Z,35.83
2017-09-28T15:17:35.634Z,35.50
2017-09-28T15:20:09.362Z,36.23
2017-09-28T15:22:43.225Z,35.87
2017-09-28T15:25:17.787Z,36.97
2017-09-28T15:27:51.653Z,37.97
2017-09-28T15:30:25.439Z,38.43
2017-09-28T15:32:59.325Z,38.77
2017-09-28T15:35:32.919Z,41.50
2017-09-28T15:38:07.621Z,40.53
2017-09-28T15:40:41.365Z,42.23
2017-09-28T15:43:15.180Z,41.27
2017-09-28T15:45:48.993Z,42.43
2017-09-28T15:48:22.838Z,40.80
2017-09-28T15:50:56.713Z,41.27
2017-09-28T15:53:30.757Z,44.93
2017-09-28T15:56:04.706Z,43.33
2017-09-28T15:58:38.527Z,41.33
2017-09-28T16:01:12.325Z,41.20
2017-09-28T16:03:46.290Z,41.03
2017-09-28T16:06:20.053Z,43.47
2017-09-28T16:08:53.682Z,41.60
2017-09-28T16:11:27.481Z,41.13
2017-09-28T16:14:02.166Z,41.90
2017-09-28T16:16:36.216Z,40.27
2017-09-28T16:19:10.089Z,43.23
2017-09-28T16:21:43.820Z,43.97
2017-09-28T16:24:18.496Z,43.73
2017-09-28T16:26:53.070Z,43.40
2017-09-28T16:29:26.867Z,44.10
2017-09-28T16:32:01.575Z,42.93
2017-09-28T16:34:35.346Z,46.63
2017-09-28T16:37:09.108Z,44.13
2017-09-28T16:39:43.734Z,44.40
2017-09-28T16:42:17.721Z,39.73
2017-09-28T16:44:52.265Z,40.03
2017-09-28T16:47:26.037Z,41.10
2017-09-28T16:49:59.888Z,41.90
2017-09-28T16:52:33.681Z,41.37
2017-09-28T16:55:08.371Z,40.60
2017-09-28T16:57:42.035Z,41.00
2017-09-28T17:00:15.854Z,42.93
2017-09-28T17:02:49.640Z,44.50
2017-09-28T17:05:23.457Z,43.70
2017-09-28T17:07:57.222Z,43.23
2017-09-28T17:10:31.929Z,44.00
2017-09-28T17:13:06.366Z,45.20
2017-09-28T17:15:41.020Z,46.20
2017-09-28T17:18:15.637Z,46.97
2017-09-28T17:20:50.265Z,45.07
2017-09-28T17:23:23.993Z,43.70
2017-09-28T17:25:57.806Z,42.40
2017-09-28T17:28:32.372Z,44.97
2017-09-28T17:31:06.115Z,41.90
2017-09-28T17:33:39.934Z,40.27
2017-09-28T17:36:13.752Z,40.77
2017-09-28T17:38:47.533Z,39.90
2017-09-28T17:41:21.426Z,40.53
2017-09-28T17:43:55.032Z,41.60
2017-09-28T17:46:28.890Z,43.63
2017-09-28T17:49:02.554Z,42.27
2017-09-28T17:51:36.362Z,39.43
2017-09-28T17:54:10.128Z,38.00
2017-09-28T17:56:44.239Z,39.57
2017-09-28T17:59:18.666Z,38.00
2017-09-28T18:01:52.887Z,37.07
2017-09-28T18:04:27.519Z,36.77
2017-09-28T18:07:01.554Z,36.30
2017-09-28T18:09:35.438Z,34.20
2017-09-28T18:12:10.672Z,35.63
2017-09-28T18:14:44.612Z,34.20
2017-09-28T18:17:18.497Z,35.87
2017-09-28T18:19:52.293Z,34.40
2017-09-28T18:22:26.836Z,34.30
2017-09-28T18:25:01.437Z,32.53
2017-09-28T18:27:36.098Z,34.57
2017-09-28T18:30:09.913Z,33.87
2017-09-28T18:32:43.741Z,37.13
2017-09-28T18:35:17.721Z,37.83
2017-09-28T18:37:51.500Z,37.67
2017-09-28T18:40:25.177Z,36.53
2017-09-28T18:42:59.008Z,36.70
2017-09-28T18:45:32.908Z,40.37
2017-09-28T18:48:06.942Z,39.30
2017-09-28T18:50:40.751Z,40.53
2017-09-28T18:53:14.642Z,82.40
2017-09-28T18:55:49.166Z,41.37
2017-09-28T18:58:22.993Z,41.10
2017-09-28T19:00:56.673Z,40.77
2017-09-28T19:03:30.532Z,37.37
2017-09-28T19:06:04.445Z,43.10
2017-09-28T19:08:38.407Z,39.97
2017-09-28T19:11:12.182Z,43.40
2017-09-28T19:13:46.763Z,43.53
2017-09-28T19:16:20.561Z,232.50
2017-09-28T19:18:54.368Z,219.80
2017-09-28T19:21:28.958Z,216.93
2017-09-28T19:24:02.813Z,88.03
2017-09-28T19:26:36.563Z,54.43
2017-09-28T19:29:10.358Z,49.77
2017-09-28T19:31:44.102Z,48.63
2017-09-28T19:34:19.146Z,41.37
2017-09-28T19:36:52.849Z,38.50
2017-09-28T19:39:26.667Z,36.77
2017-09-28T19:42:01.180Z,37.60
2017-09-28T19:44:34.964Z,39.00
2017-09-28T19:47:08.738Z,36.40
2017-09-28T19:49:42.507Z,37.27
2017-09-28T19:52:17.091Z,38.03
2017-09-28T19:54:51.645Z,34.50
2017-09-28T19:57:25.599Z,34.30
2017-09-28T19:59:59.370Z,33.80
2017-09-28T20:02:33.061Z,33.50
2017-09-28T20:05:06.835Z,33.67
2017-09-28T20:07:40.664Z,34.87
2017-09-28T20:10:15.198Z,34.57
2017-09-28T20:12:49.789Z,37.80
2017-09-28T20:15:23.565Z,37.30
2017-09-28T20:17:57.506Z,39.47
2017-09-28T20:20:31.320Z,38.90
2017-09-28T20:23:05.171Z,36.03
2017-09-28T20:25:39.124Z,36.10
2017-09-28T20:28:12.966Z,35.90
2017-09-28T20:30:48.576Z,31.07
2017-09-28T20:33:22.996Z,33.23
2017-09-28T20:35:56.755Z,32.77
2017-09-28T20:38:30.653Z,32.20
2017-09-28T20:41:05.271Z,33.00
2017-09-28T20:43:39.085Z,31.87
2017-09-28T20:46:13.606Z,31.80
2017-09-28T20:48:47.295Z,30.97
2017-09-28T20:51:21.325Z,31.87
2017-09-28T20:53:55.130Z,31.30
2017-09-28T20:56:29.745Z,31.50
2017-09-28T20:59:03.509Z,32.07
2017-09-28T21:01:37.230Z,32.87
2017-09-28T21:04:11.851Z,29.40
2017-09-28T21:06:45.718Z,31.03
2017-09-28T21:09:19.474Z,31.07
2017-09-28T21:11:53.232Z,31.07
2017-09-28T21:14:26.994Z,29.67
2017-09-28T21:17:00.841Z,32.40
2017-09-28T21:19:34.505Z,33.07
2017-09-28T21:22:08.321Z,31.60
2017-09-28T21:24:42.115Z,35.20
2017-09-28T21:27:15.858Z,33.30
2017-09-28T21:29:50.444Z,32.67
2017-09-28T21:32:24.238Z,33.97
2017-09-28T21:34:58.001Z,34.40
2017-09-28T21:37:32.545Z,36.17
2017-09-28T21:40:07.558Z,36.90
2017-09-28T21:42:41.417Z,33.40
2017-09-28T21:45:15.101Z,33.90
2017-09-28T21:47:48.962Z,32.87
2017-09-28T21:50:22.836Z,33.57
2017-09-28T21:52:56.619Z,32.80
2017-09-28T21:55:30.356Z,35.77
2017-09-28T21:58:04.405Z,33.47
2017-09-28T22:00:38.248Z,30.63
2017-09-28T22:03:12.792Z,30.17
2017-09-28T22:05:46.583Z,30.43
2017-09-28T22:08:20.296Z,28.77
2017-09-28T22:10:54.212Z,32.60
2017-09-28T22:13:28.816Z,32.73
2017-09-28T22:16:03.854Z,32.93
2017-09-28T22:18:37.455Z,34.17
2017-09-28T22:21:11.284Z,35.30
2017-09-28T22:23:45.824Z,35.47
2017-09-28T22:26:19.726Z,31.83
2017-09-28T22:28:54.376Z,34.80
2017-09-28T22:31:28.238Z,35.80
2017-09-28T22:34:02.896Z,33.23
2017-09-28T22:36:37.368Z,33.43
2017-09-28T22:39:11.236Z,37.10
2017-09-28T22:41:44.997Z,35.17
2017-09-28T22:44:18.878Z,35.37
2017-09-28T22:46:52.607Z,36.33
2017-09-28T22:49:27.112Z,38.17
2017-09-28T22:52:01.686Z,34.40
2017-09-28T22:54:35.541Z,34.27
2017-09-28T22:57:09.332Z,36.00
2017-09-28T22:59:43.172Z,36.90
2017-09-28T23:02:17.041Z,37.90
2017-09-28T23:04:50.878Z,35.90
2017-09-28T23:07:24.640Z,37.77
2017-09-28T23:09:58.534Z,40.90
2017-09-28T23:12:32.357Z,39.67
2017-09-28T23:15:06.141Z,39.37
2017-09-28T23:17:39.937Z,40.50
2017-09-28T23:20:14.557Z,37.23
2017-09-28T23:22:48.310Z,37.80
2017-09-28T23:25:22.198Z,37.73
2017-09-28T23:27:56.009Z,37.33
2017-09-28T23:30:30.576Z,36.83
2017-09-28T23:33:04.342Z,39.40
2017-09-28T23:35:38.802Z,37.00
2017-09-28T23:38:12.672Z,38.47
2017-09-28T23:40:46.549Z,37.33
2017-09-28T23:43:20.380Z,37.40
2017-09-28T23:45:54.856Z,41.97
2017-09-28T23:48:28.645Z,41.30
2017-09-28T23:51:02.362Z,40.87
2017-09-28T23:53:36.322Z,41.90
2017-09-28T23:56:09.990Z,39.20
2017-09-28T23:58:44.521Z,38.40
